sensor_id;sensor_type;location;lat;lon;timestamp;pressure;altitude;pressure_sealevel;temperature;humidity
20630;BME280;17386;43.846;25.950;2023-09-30T00:01:17;101587.03;;;19.57;65.62
20630;BME280;17386;43.846;25.950;2023-09-30T00:03:44;101581.66;;;19.57;65.73
20630;BME280;17386;43.846;25.950;2023-09-30T00:06:09;101578.97;;;19.57;66.03
20630;BME280;17386;43.846;25.950;2023-09-30T00:08:35;101567.94;;;19.46;66.08
20630;BME280;17386;43.846;25.950;2023-09-30T00:11:00;101584.50;;;19.54;66.27
20630;BME280;17386;43.846;25.950;2023-09-30T00:13:26;101587.13;;;19.55;66.24
20630;BME280;17386;43.846;25.950;2023-09-30T00:15:51;101583.75;;;19.52;66.71
20630;BME280;17386;43.846;25.950;2023-09-30T00:18:17;101578.91;;;19.43;67.10
20630;BME280;17386;43.846;25.950;2023-09-30T00:20:42;101582.47;;;19.43;67.47
20630;BME280;17386;43.846;25.950;2023-09-30T00:23:08;101582.38;;;19.45;67.56
20630;BME280;17386;43.846;25.950;2023-09-30T00:25:34;101572.63;;;19.42;67.21
20630;BME280;17386;43.846;25.950;2023-09-30T00:27:59;101580.81;;;19.40;67.30
20630;BME280;17386;43.846;25.950;2023-09-30T00:30:25;101574.56;;;19.40;67.95
20630;BME280;17386;43.846;25.950;2023-09-30T00:32:50;101579.44;;;19.33;68.07
20630;BME280;17386;43.846;25.950;2023-09-30T00:35:15;101579.34;;;19.35;68.41
20630;BME280;17386;43.846;25.950;2023-09-30T00:37:42;101584.66;;;19.36;68.56
20630;BME280;17386;43.846;25.950;2023-09-30T00:40:08;101569.38;;;19.37;68.38
20630;BME280;17386;43.846;25.950;2023-09-30T00:42:40;101573.09;;;19.34;68.57
20630;BME280;17386;43.846;25.950;2023-09-30T00:45:06;101578.78;;;19.30;68.39
20630;BME280;17386;43.846;25.950;2023-09-30T00:47:35;101576.16;;;19.28;68.78
20630;BME280;17386;43.846;25.950;2023-09-30T00:50:01;101572.78;;;19.25;68.67
20630;BME280;17386;43.846;25.950;2023-09-30T00:52:28;101571.81;;;19.26;68.78
20630;BME280;17386;43.846;25.950;2023-09-30T00:54:54;101577.19;;;19.26;68.61
20630;BME280;17386;43.846;25.950;2023-09-30T00:57:20;101565.47;;;19.27;68.77
20630;BME280;17386;43.846;25.950;2023-09-30T00:59:47;101571.81;;;19.26;69.18
20630;BME280;17386;43.846;25.950;2023-09-30T01:02:13;101566.53;;;19.24;68.92
20630;BME280;17386;43.846;25.950;2023-09-30T01:04:38;101570.09;;;19.25;68.84
20630;BME280;17386;43.846;25.950;2023-09-30T01:07:04;101565.66;;;19.24;68.97
20630;BME280;17386;43.846;25.950;2023-09-30T01:09:30;101570.19;;;19.23;69.38
20630;BME280;17386;43.846;25.950;2023-09-30T01:11:56;101567.50;;;19.23;68.99
20630;BME280;17386;43.846;25.950;2023-09-30T01:14:29;101568.00;;;19.14;69.24
20630;BME280;17386;43.846;25.950;2023-09-30T01:16:54;101566.97;;;19.01;69.16
20630;BME280;17386;43.846;25.950;2023-09-30T01:19:20;101570.63;;;19.00;69.02
20630;BME280;17386;43.846;25.950;2023-09-30T01:21:46;101567.94;;;19.00;68.60
20630;BME280;17386;43.846;25.950;2023-09-30T01:24:14;101568.81;;;19.00;68.73
20630;BME280;17386;43.846;25.950;2023-09-30T01:26:40;101569.66;;;19.01;68.52
20630;BME280;17386;43.846;25.950;2023-09-30T01:29:07;101567.38;;;18.95;68.62
20630;BME280;17386;43.846;25.950;2023-09-30T01:31:36;101561.19;;;18.93;68.04
20630;BME280;17386;43.846;25.950;2023-09-30T01:34:02;101574.72;;;18.91;67.72
20630;BME280;17386;43.846;25.950;2023-09-30T01:36:28;101574.06;;;18.88;67.61
20630;BME280;17386;43.846;25.950;2023-09-30T01:38:54;101561.97;;;18.79;67.53
20630;BME280;17386;43.846;25.950;2023-09-30T01:41:19;101572.06;;;18.75;67.47
20630;BME280;17386;43.846;25.950;2023-09-30T01:43:44;101575.19;;;18.68;67.27
20630;BME280;17386;43.846;25.950;2023-09-30T01:46:10;101575.66;;;18.58;67.60
20630;BME280;17386;43.846;25.950;2023-09-30T01:48:35;101569.69;;;18.53;67.38
20630;BME280;17386;43.846;25.950;2023-09-30T01:51:01;101568.00;;;18.51;66.90
20630;BME280;17386;43.846;25.950;2023-09-30T01:53:26;101576.06;;;18.51;66.09
20630;BME280;17386;43.846;25.950;2023-09-30T01:55:52;101573.56;;;18.48;65.02
20630;BME280;17386;43.846;25.950;2023-09-30T01:58:17;101577.38;;;18.44;64.89
20630;BME280;17386;43.846;25.950;2023-09-30T02:00:43;101575.88;;;18.38;64.88
20630;BME280;17386;43.846;25.950;2023-09-30T02:03:08;101578.84;;;18.34;64.97
20630;BME280;17386;43.846;25.950;2023-09-30T02:05:34;101572.66;;;18.31;64.73
20630;BME280;17386;43.846;25.950;2023-09-30T02:07:59;101579.94;;;18.29;64.82
20630;BME280;17386;43.846;25.950;2023-09-30T02:10:24;101573.94;;;18.24;64.85
20630;BME280;17386;43.846;25.950;2023-09-30T02:12:50;101576.97;;;18.18;65.23
20630;BME280;17386;43.846;25.950;2023-09-30T02:15:15;101576.03;;;18.19;65.02
20630;BME280;17386;43.846;25.950;2023-09-30T02:17:41;101569.06;;;18.15;65.38
20630;BME280;17386;43.846;25.950;2023-09-30T02:20:11;101570.91;;;18.15;65.39
20630;BME280;17386;43.846;25.950;2023-09-30T02:22:41;101570.19;;;18.11;65.41
20630;BME280;17386;43.846;25.950;2023-09-30T02:25:06;101565.06;;;18.07;65.76
20630;BME280;17386;43.846;25.950;2023-09-30T02:27:33;101571.31;;;18.07;65.50
20630;BME280;17386;43.846;25.950;2023-09-30T02:29:59;101571.41;;;18.06;65.47
20630;BME280;17386;43.846;25.950;2023-09-30T02:32:24;101568.00;;;18.02;65.51
20630;BME280;17386;43.846;25.950;2023-09-30T02:34:50;101569.81;;;18.01;65.81
20630;BME280;17386;43.846;25.950;2023-09-30T02:37:16;101573.59;;;17.97;65.73
20630;BME280;17386;43.846;25.950;2023-09-30T02:39:43;101577.25;;;17.96;65.68
20630;BME280;17386;43.846;25.950;2023-09-30T02:42:10;101569.47;;;17.92;65.80
20630;BME280;17386;43.846;25.950;2023-09-30T02:44:35;101579.50;;;17.88;66.19
20630;BME280;17386;43.846;25.950;2023-09-30T02:47:01;101577.97;;;17.83;66.24
20630;BME280;17386;43.846;25.950;2023-09-30T02:49:26;101578.25;;;17.78;66.42
20630;BME280;17386;43.846;25.950;2023-09-30T02:51:51;101582.03;;;17.74;66.28
20630;BME280;17386;43.846;25.950;2023-09-30T02:54:17;101577.72;;;17.70;66.44
20630;BME280;17386;43.846;25.950;2023-09-30T02:56:42;101587.78;;;17.66;66.50
20630;BME280;17386;43.846;25.950;2023-09-30T02:59:08;101579.84;;;17.63;66.75
20630;BME280;17386;43.846;25.950;2023-09-30T03:01:33;101575.69;;;17.58;67.01
20630;BME280;17386;43.846;25.950;2023-09-30T03:03:59;101577.66;;;17.54;67.37
20630;BME280;17386;43.846;25.950;2023-09-30T03:06:24;101578.78;;;17.50;67.24
20630;BME280;17386;43.846;25.950;2023-09-30T03:08:50;101576.41;;;17.44;67.66
20630;BME280;17386;43.846;25.950;2023-09-30T03:11:17;101574.59;;;17.44;67.88
20630;BME280;17386;43.846;25.950;2023-09-30T03:13:45;101575.59;;;17.42;67.88
20630;BME280;17386;43.846;25.950;2023-09-30T03:16:10;101574.81;;;17.40;68.38
20630;BME280;17386;43.846;25.950;2023-09-30T03:18:36;101576.72;;;17.38;68.32
20630;BME280;17386;43.846;25.950;2023-09-30T03:21:02;101575.84;;;17.37;68.73
20630;BME280;17386;43.846;25.950;2023-09-30T03:23:33;101581.34;;;17.34;68.82
20630;BME280;17386;43.846;25.950;2023-09-30T03:25:59;101574.47;;;17.29;69.36
20630;BME280;17386;43.846;25.950;2023-09-30T03:28:28;101572.75;;;17.28;70.00
20630;BME280;17386;43.846;25.950;2023-09-30T03:30:54;101581.81;;;17.25;70.32
20630;BME280;17386;43.846;25.950;2023-09-30T03:33:19;101570.59;;;17.17;70.45
20630;BME280;17386;43.846;25.950;2023-09-30T03:35:45;101584.66;;;17.22;70.82
20630;BME280;17386;43.846;25.950;2023-09-30T03:38:11;101588.28;;;17.21;71.02
20630;BME280;17386;43.846;25.950;2023-09-30T03:40:39;101576.59;;;17.22;71.04
20630;BME280;17386;43.846;25.950;2023-09-30T03:43:05;101579.06;;;17.27;71.19
20630;BME280;17386;43.846;25.950;2023-09-30T03:45:33;101583.41;;;17.29;71.01
20630;BME280;17386;43.846;25.950;2023-09-30T03:48:01;101577.16;;;17.29;70.93
20630;BME280;17386;43.846;25.950;2023-09-30T03:50:27;101590.59;;;17.29;71.35
20630;BME280;17386;43.846;25.950;2023-09-30T03:53:00;101589.56;;;17.31;71.84
20630;BME280;17386;43.846;25.950;2023-09-30T03:55:26;101586.63;;;17.36;72.76
20630;BME280;17386;43.846;25.950;2023-09-30T03:57:51;101583.97;;;17.36;72.64
20630;BME280;17386;43.846;25.950;2023-09-30T04:00:17;101579.47;;;17.36;73.00
20630;BME280;17386;43.846;25.950;2023-09-30T04:02:44;101585.63;;;17.38;72.96
20630;BME280;17386;43.846;25.950;2023-09-30T04:05:13;101587.59;;;17.35;73.18
20630;BME280;17386;43.846;25.950;2023-09-30T04:07:40;101589.31;;;17.36;73.33
20630;BME280;17386;43.846;25.950;2023-09-30T04:10:07;101589.66;;;17.30;73.61
20630;BME280;17386;43.846;25.950;2023-09-30T04:12:33;101589.50;;;17.33;74.01
20630;BME280;17386;43.846;25.950;2023-09-30T04:14:59;101593.22;;;17.30;74.18
20630;BME280;17386;43.846;25.950;2023-09-30T04:17:24;101587.91;;;17.29;74.75
20630;BME280;17386;43.846;25.950;2023-09-30T04:19:52;101592.34;;;17.30;74.76
20630;BME280;17386;43.846;25.950;2023-09-30T04:22:17;101590.53;;;17.30;74.82
20630;BME280;17386;43.846;25.950;2023-09-30T04:24:44;101604.81;;;17.31;74.97
20630;BME280;17386;43.846;25.950;2023-09-30T04:27:09;101603.97;;;17.30;75.36
20630;BME280;17386;43.846;25.950;2023-09-30T04:29:35;101601.31;;;17.29;75.99
20630;BME280;17386;43.846;25.950;2023-09-30T04:32:00;101612.22;;;17.26;76.59
20630;BME280;17386;43.846;25.950;2023-09-30T04:34:26;101608.81;;;17.22;77.31
20630;BME280;17386;43.846;25.950;2023-09-30T04:36:53;101609.78;;;17.21;77.68
20630;BME280;17386;43.846;25.950;2023-09-30T04:39:19;101596.88;;;17.10;78.84
20630;BME280;17386;43.846;25.950;2023-09-30T04:41:44;101616.25;;;17.17;79.38
20630;BME280;17386;43.846;25.950;2023-09-30T04:44:09;101625.19;;;17.17;80.14
20630;BME280;17386;43.846;25.950;2023-09-30T04:46:35;101612.69;;;17.16;80.93
20630;BME280;17386;43.846;25.950;2023-09-30T04:49:01;101620.50;;;17.21;81.38
20630;BME280;17386;43.846;25.950;2023-09-30T04:51:27;101615.13;;;17.21;81.32
20630;BME280;17386;43.846;25.950;2023-09-30T04:53:53;101621.16;;;17.26;83.33
20630;BME280;17386;43.846;25.950;2023-09-30T04:56:20;101621.31;;;17.23;83.98
20630;BME280;17386;43.846;25.950;2023-09-30T04:58:45;101624.72;;;17.27;84.52
20630;BME280;17386;43.846;25.950;2023-09-30T05:01:12;101614.84;;;17.27;82.34
20630;BME280;17386;43.846;25.950;2023-09-30T05:03:38;101626.38;;;17.29;81.75
20630;BME280;17386;43.846;25.950;2023-09-30T05:06:03;101610.59;;;17.23;81.95
20630;BME280;17386;43.846;25.950;2023-09-30T05:08:29;101617.59;;;17.26;82.21
20630;BME280;17386;43.846;25.950;2023-09-30T05:10:54;101624.63;;;17.28;82.57
20630;BME280;17386;43.846;25.950;2023-09-30T05:13:21;101623.75;;;17.28;82.49
20630;BME280;17386;43.846;25.950;2023-09-30T05:15:48;101630.00;;;17.28;82.91
20630;BME280;17386;43.846;25.950;2023-09-30T05:18:14;101633.72;;;17.26;82.84
20630;BME280;17386;43.846;25.950;2023-09-30T05:20:39;101633.50;;;17.30;82.83
20630;BME280;17386;43.846;25.950;2023-09-30T05:23:05;101634.97;;;17.36;82.44
20630;BME280;17386;43.846;25.950;2023-09-30T05:25:32;101612.06;;;17.29;81.52
20630;BME280;17386;43.846;25.950;2023-09-30T05:27:57;101632.72;;;17.45;81.32
20630;BME280;17386;43.846;25.950;2023-09-30T05:30:23;101635.25;;;17.48;80.60
20630;BME280;17386;43.846;25.950;2023-09-30T05:32:48;101637.53;;;17.56;80.58
20630;BME280;17386;43.846;25.950;2023-09-30T05:35:17;101633.94;;;17.57;79.89
20630;BME280;17386;43.846;25.950;2023-09-30T05:37:43;101638.09;;;17.63;79.65
20630;BME280;17386;43.846;25.950;2023-09-30T05:40:10;101637.88;;;17.67;79.37
20630;BME280;17386;43.846;25.950;2023-09-30T05:42:47;101636.84;;;17.70;79.33
20630;BME280;17386;43.846;25.950;2023-09-30T05:45:12;101641.88;;;17.77;79.18
20630;BME280;17386;43.846;25.950;2023-09-30T05:47:38;101644.16;;;17.85;78.84
20630;BME280;17386;43.846;25.950;2023-09-30T05:50:04;101649.38;;;17.88;79.16
20630;BME280;17386;43.846;25.950;2023-09-30T05:52:33;101642.03;;;17.92;78.86
20630;BME280;17386;43.846;25.950;2023-09-30T05:54:58;101643.50;;;17.97;78.40
20630;BME280;17386;43.846;25.950;2023-09-30T05:57:26;101656.50;;;18.07;78.03
20630;BME280;17386;43.846;25.950;2023-09-30T05:59:51;101638.22;;;18.13;77.84
20630;BME280;17386;43.846;25.950;2023-09-30T06:02:17;101647.63;;;18.22;77.27
20630;BME280;17386;43.846;25.950;2023-09-30T06:04:42;101656.13;;;18.30;77.21
20630;BME280;17386;43.846;25.950;2023-09-30T06:07:08;101650.44;;;18.36;77.06
20630;BME280;17386;43.846;25.950;2023-09-30T06:09:33;101645.50;;;18.44;75.56
20630;BME280;17386;43.846;25.950;2023-09-30T06:11:59;101642.66;;;18.47;74.11
20630;BME280;17386;43.846;25.950;2023-09-30T06:14:28;101657.22;;;18.43;74.55
20630;BME280;17386;43.846;25.950;2023-09-30T06:16:56;101658.59;;;18.35;75.07
20630;BME280;17386;43.846;25.950;2023-09-30T06:19:21;101655.34;;;18.28;75.72
20630;BME280;17386;43.846;25.950;2023-09-30T06:21:46;101657.53;;;18.37;75.80
20630;BME280;17386;43.846;25.950;2023-09-30T06:24:12;101659.75;;;18.46;75.45
20630;BME280;17386;43.846;25.950;2023-09-30T06:26:37;101661.75;;;18.58;74.75
20630;BME280;17386;43.846;25.950;2023-09-30T06:29:03;101660.16;;;18.72;73.62
20630;BME280;17386;43.846;25.950;2023-09-30T06:31:28;101658.63;;;18.83;73.10
20630;BME280;17386;43.846;25.950;2023-09-30T06:33:54;101662.19;;;19.00;72.51
20630;BME280;17386;43.846;25.950;2023-09-30T06:36:23;101667.84;;;19.11;72.73
20630;BME280;17386;43.846;25.950;2023-09-30T06:38:48;101669.84;;;19.07;73.56
20630;BME280;17386;43.846;25.950;2023-09-30T06:41:18;101667.75;;;19.12;72.50
20630;BME280;17386;43.846;25.950;2023-09-30T06:43:44;101669.84;;;19.23;71.72
20630;BME280;17386;43.846;25.950;2023-09-30T06:46:10;101669.50;;;19.29;71.04
20630;BME280;17386;43.846;25.950;2023-09-30T06:48:36;101669.78;;;19.09;72.16
20630;BME280;17386;43.846;25.950;2023-09-30T06:51:02;101658.81;;;18.96;71.50
20630;BME280;17386;43.846;25.950;2023-09-30T06:53:28;101672.97;;;19.00;72.54
20630;BME280;17386;43.846;25.950;2023-09-30T06:55:53;101666.72;;;19.15;72.73
20630;BME280;17386;43.846;25.950;2023-09-30T06:58:19;101666.47;;;19.35;71.88
20630;BME280;17386;43.846;25.950;2023-09-30T07:00:51;101668.50;;;19.62;70.55
20630;BME280;17386;43.846;25.950;2023-09-30T07:03:19;101672.47;;;19.86;68.14
20630;BME280;17386;43.846;25.950;2023-09-30T07:05:45;101666.91;;;20.04;67.09
20630;BME280;17386;43.846;25.950;2023-09-30T07:08:11;101663.09;;;20.22;66.66
20630;BME280;17386;43.846;25.950;2023-09-30T07:10:36;101664.94;;;20.36;65.87
20630;BME280;17386;43.846;25.950;2023-09-30T07:13:03;101662.59;;;20.45;65.20
20630;BME280;17386;43.846;25.950;2023-09-30T07:15:29;101664.78;;;20.39;65.10
20630;BME280;17386;43.846;25.950;2023-09-30T07:17:54;101670.19;;;20.09;66.09
20630;BME280;17386;43.846;25.950;2023-09-30T07:20:19;101671.38;;;20.05;66.00
20630;BME280;17386;43.846;25.950;2023-09-30T07:22:46;101668.47;;;20.08;66.30
20630;BME280;17386;43.846;25.950;2023-09-30T07:25:12;101671.03;;;20.25;65.53
20630;BME280;17386;43.846;25.950;2023-09-30T07:27:40;101673.97;;;20.20;64.75
20630;BME280;17386;43.846;25.950;2023-09-30T07:30:05;101665.53;;;20.27;64.89
20630;BME280;17386;43.846;25.950;2023-09-30T07:32:32;101657.22;;;20.44;64.14
20630;BME280;17386;43.846;25.950;2023-09-30T07:34:57;101667.97;;;20.45;61.70
20630;BME280;17386;43.846;25.950;2023-09-30T07:37:22;101675.00;;;20.62;62.03
20630;BME280;17386;43.846;25.950;2023-09-30T07:39:48;101674.34;;;20.87;61.26
20630;BME280;17386;43.846;25.950;2023-09-30T07:42:14;101673.81;;;21.09;60.10
20630;BME280;17386;43.846;25.950;2023-09-30T07:44:40;101660.16;;;21.25;59.90
20630;BME280;17386;43.846;25.950;2023-09-30T07:47:05;101665.06;;;21.33;59.13
20630;BME280;17386;43.846;25.950;2023-09-30T07:49:38;101663.63;;;21.41;58.68
20630;BME280;17386;43.846;25.950;2023-09-30T07:52:04;101670.66;;;21.44;58.66
20630;BME280;17386;43.846;25.950;2023-09-30T07:54:29;101669.72;;;21.57;58.69
20630;BME280;17386;43.846;25.950;2023-09-30T07:56:55;101670.63;;;21.71;57.83
20630;BME280;17386;43.846;25.950;2023-09-30T07:59:20;101673.63;;;21.66;56.52
20630;BME280;17386;43.846;25.950;2023-09-30T08:01:47;101669.44;;;21.62;55.94
20630;BME280;17386;43.846;25.950;2023-09-30T08:04:13;101673.63;;;21.66;55.69
20630;BME280;17386;43.846;25.950;2023-09-30T08:06:38;101669.81;;;21.83;56.10
20630;BME280;17386;43.846;25.950;2023-09-30T08:09:05;101665.94;;;22.00;56.92
20630;BME280;17386;43.846;25.950;2023-09-30T08:11:35;101666.31;;;22.21;55.82
20630;BME280;17386;43.846;25.950;2023-09-30T08:14:05;101666.22;;;22.35;54.22
20630;BME280;17386;43.846;25.950;2023-09-30T08:16:37;101678.88;;;22.60;53.67
20630;BME280;17386;43.846;25.950;2023-09-30T08:19:03;101673.13;;;22.64;52.70
20630;BME280;17386;43.846;25.950;2023-09-30T08:21:29;101676.25;;;22.84;51.51
20630;BME280;17386;43.846;25.950;2023-09-30T08:23:55;101678.19;;;23.07;51.27
20630;BME280;17386;43.846;25.950;2023-09-30T08:26:20;101679.06;;;23.32;49.86
20630;BME280;17386;43.846;25.950;2023-09-30T08:28:46;101671.28;;;23.51;49.67
20630;BME280;17386;43.846;25.950;2023-09-30T08:31:11;101669.16;;;23.67;49.27
20630;BME280;17386;43.846;25.950;2023-09-30T08:33:37;101662.66;;;23.70;48.69
20630;BME280;17386;43.846;25.950;2023-09-30T08:36:05;101669.34;;;23.77;48.92
20630;BME280;17386;43.846;25.950;2023-09-30T08:38:38;101654.72;;;23.91;48.69
20630;BME280;17386;43.846;25.950;2023-09-30T08:41:05;101664.38;;;24.06;47.88
20630;BME280;17386;43.846;25.950;2023-09-30T08:43:30;101663.06;;;24.23;47.04
20630;BME280;17386;43.846;25.950;2023-09-30T08:46:00;101657.50;;;24.24;46.38
20630;BME280;17386;43.846;25.950;2023-09-30T08:48:28;101660.53;;;24.44;47.20
20630;BME280;17386;43.846;25.950;2023-09-30T08:50:55;101645.84;;;24.46;48.31
20630;BME280;17386;43.846;25.950;2023-09-30T08:53:23;101653.63;;;24.51;47.65
20630;BME280;17386;43.846;25.950;2023-09-30T08:55:52;101638.28;;;24.50;47.36
20630;BME280;17386;43.846;25.950;2023-09-30T08:58:19;101647.81;;;24.67;46.62
20630;BME280;17386;43.846;25.950;2023-09-30T09:00:45;101638.00;;;24.98;44.36
20630;BME280;17386;43.846;25.950;2023-09-30T09:03:11;101642.47;;;25.21;42.48
20630;BME280;17386;43.846;25.950;2023-09-30T09:05:36;101648.84;;;25.31;41.19
20630;BME280;17386;43.846;25.950;2023-09-30T09:08:02;101641.69;;;25.30;41.27
20630;BME280;17386;43.846;25.950;2023-09-30T09:10:27;101640.09;;;25.60;40.58
20630;BME280;17386;43.846;25.950;2023-09-30T09:12:57;101634.09;;;25.77;39.62
20630;BME280;17386;43.846;25.950;2023-09-30T09:15:26;101634.31;;;25.85;38.81
20630;BME280;17386;43.846;25.950;2023-09-30T09:17:53;101637.84;;;25.97;38.36
20630;BME280;17386;43.846;25.950;2023-09-30T09:20:23;101624.69;;;26.02;38.09
20630;BME280;17386;43.846;25.950;2023-09-30T09:22:52;101627.66;;;26.20;37.30
20630;BME280;17386;43.846;25.950;2023-09-30T09:25:23;101628.03;;;26.57;36.46
20630;BME280;17386;43.846;25.950;2023-09-30T09:27:50;101619.25;;;27.04;36.29
20630;BME280;17386;43.846;25.950;2023-09-30T09:30:20;101616.31;;;27.65;35.14
20630;BME280;17386;43.846;25.950;2023-09-30T09:32:59;101609.91;;;28.42;33.89
20630;BME280;17386;43.846;25.950;2023-09-30T09:35:27;101612.59;;;28.51;33.04
20630;BME280;17386;43.846;25.950;2023-09-30T09:38:04;101610.91;;;28.41;33.07
20630;BME280;17386;43.846;25.950;2023-09-30T09:40:35;101610.78;;;28.42;32.88
20630;BME280;17386;43.846;25.950;2023-09-30T09:43:02;101612.91;;;28.48;33.20
20630;BME280;17386;43.846;25.950;2023-09-30T09:45:36;101617.69;;;28.37;33.04
20630;BME280;17386;43.846;25.950;2023-09-30T09:48:03;101608.06;;;28.32;33.23
20630;BME280;17386;43.846;25.950;2023-09-30T09:50:30;101597.53;;;28.38;33.52
20630;BME280;17386;43.846;25.950;2023-09-30T09:52:58;101597.81;;;28.44;33.16
20630;BME280;17386;43.846;25.950;2023-09-30T09:55:25;101591.59;;;28.52;33.12
20630;BME280;17386;43.846;25.950;2023-09-30T09:57:52;101593.88;;;28.56;33.15
20630;BME280;17386;43.846;25.950;2023-09-30T10:00:19;101595.75;;;28.56;33.22
20630;BME280;17386;43.846;25.950;2023-09-30T10:02:46;101581.75;;;28.59;33.09
20630;BME280;17386;43.846;25.950;2023-09-30T10:05:13;101582.09;;;28.56;32.88
20630;BME280;17386;43.846;25.950;2023-09-30T10:07:44;101583.81;;;28.57;32.68
20630;BME280;17386;43.846;25.950;2023-09-30T10:10:15;101582.44;;;28.71;32.49
20630;BME280;17386;43.846;25.950;2023-09-30T10:12:41;101584.94;;;28.54;32.64
20630;BME280;17386;43.846;25.950;2023-09-30T10:18:11;101564.81;;;28.55;33.05
20630;BME280;17386;43.846;25.950;2023-09-30T10:20:41;101560.31;;;28.82;32.30
20630;BME280;17386;43.846;25.950;2023-09-30T10:25:48;101557.53;;;29.19;31.68
20630;BME280;17386;43.846;25.950;2023-09-30T10:28:34;101546.72;;;29.35;31.56
20630;BME280;17386;43.846;25.950;2023-09-30T10:31:16;101541.53;;;29.50;31.09
20630;BME280;17386;43.846;25.950;2023-09-30T10:36:34;101538.41;;;29.63;30.43
20630;BME280;17386;43.846;25.950;2023-09-30T10:39:02;101531.69;;;29.57;30.42
20630;BME280;17386;43.846;25.950;2023-09-30T10:46:53;101526.53;;;29.36;30.27
20630;BME280;17386;43.846;25.950;2023-09-30T10:51:50;101527.41;;;29.19;30.07
20630;BME280;17386;43.846;25.950;2023-09-30T10:54:21;101524.91;;;29.26;29.93
20630;BME280;17386;43.846;25.950;2023-09-30T10:56:48;101524.41;;;29.30;30.36
20630;BME280;17386;43.846;25.950;2023-09-30T10:59:24;101522.81;;;29.37;30.46
20630;BME280;17386;43.846;25.950;2023-09-30T11:01:50;101515.97;;;29.41;30.03
20630;BME280;17386;43.846;25.950;2023-09-30T11:04:16;101516.19;;;29.48;30.33
20630;BME280;17386;43.846;25.950;2023-09-30T11:06:43;101515.91;;;29.33;30.82
20630;BME280;17386;43.846;25.950;2023-09-30T11:09:08;101507.75;;;29.41;31.07
20630;BME280;17386;43.846;25.950;2023-09-30T11:11:43;101507.38;;;29.36;30.31
20630;BME280;17386;43.846;25.950;2023-09-30T11:14:39;101498.47;;;29.52;29.44
20630;BME280;17386;43.846;25.950;2023-09-30T11:17:05;101502.00;;;29.70;28.35
20630;BME280;17386;43.846;25.950;2023-09-30T11:19:45;101498.38;;;29.88;28.17
20630;BME280;17386;43.846;25.950;2023-09-30T11:22:11;101494.69;;;30.05;27.64
20630;BME280;17386;43.846;25.950;2023-09-30T11:24:37;101494.16;;;30.02;26.47
20630;BME280;17386;43.846;25.950;2023-09-30T11:27:02;101484.19;;;29.92;26.14
20630;BME280;17386;43.846;25.950;2023-09-30T11:29:28;101475.38;;;29.81;26.48
20630;BME280;17386;43.846;25.950;2023-09-30T11:31:53;101479.72;;;29.91;26.38
20630;BME280;17386;43.846;25.950;2023-09-30T11:34:31;101469.25;;;29.87;26.08
20630;BME280;17386;43.846;25.950;2023-09-30T11:36:57;101463.56;;;29.80;25.53
20630;BME280;17386;43.846;25.950;2023-09-30T11:39:23;101466.41;;;29.70;25.53
20630;BME280;17386;43.846;25.950;2023-09-30T11:41:50;101468.13;;;29.72;25.67
20630;BME280;17386;43.846;25.950;2023-09-30T11:44:15;101460.13;;;29.78;25.18
20630;BME280;17386;43.846;25.950;2023-09-30T11:46:52;101457.66;;;29.93;25.37
20630;BME280;17386;43.846;25.950;2023-09-30T11:49:36;101443.16;;;30.09;25.21
20630;BME280;17386;43.846;25.950;2023-09-30T11:52:08;101457.16;;;30.32;25.08
20630;BME280;17386;43.846;25.950;2023-09-30T11:54:37;101452.59;;;30.48;24.58
20630;BME280;17386;43.846;25.950;2023-09-30T11:57:07;101445.22;;;30.57;24.35
20630;BME280;17386;43.846;25.950;2023-09-30T11:59:35;101456.78;;;30.69;24.15
20630;BME280;17386;43.846;25.950;2023-09-30T12:02:01;101445.28;;;30.73;24.11
20630;BME280;17386;43.846;25.950;2023-09-30T12:04:29;101444.97;;;30.76;23.91
20630;BME280;17386;43.846;25.950;2023-09-30T12:06:55;101436.38;;;30.88;23.96
20630;BME280;17386;43.846;25.950;2023-09-30T12:09:20;101432.63;;;30.89;23.98
20630;BME280;17386;43.846;25.950;2023-09-30T12:11:52;101431.91;;;30.87;23.54
20630;BME280;17386;43.846;25.950;2023-09-30T12:14:19;101432.28;;;30.84;23.48
20630;BME280;17386;43.846;25.950;2023-09-30T12:16:46;101433.53;;;30.47;23.73
20630;BME280;17386;43.846;25.950;2023-09-30T12:19:12;101425.66;;;30.44;23.75
20630;BME280;17386;43.846;25.950;2023-09-30T12:21:39;101432.50;;;30.40;24.06
20630;BME280;17386;43.846;25.950;2023-09-30T12:24:05;101423.66;;;30.62;23.89
20630;BME280;17386;43.846;25.950;2023-09-30T12:26:33;101415.47;;;30.70;23.14
20630;BME280;17386;43.846;25.950;2023-09-30T12:28:58;101414.09;;;30.99;23.32
20630;BME280;17386;43.846;25.950;2023-09-30T12:31:24;101406.06;;;31.30;23.40
20630;BME280;17386;43.846;25.950;2023-09-30T12:33:49;101404.16;;;31.30;23.33
20630;BME280;17386;43.846;25.950;2023-09-30T12:36:17;101395.41;;;31.02;23.52
20630;BME280;17386;43.846;25.950;2023-09-30T12:38:43;101400.19;;;31.00;23.68
20630;BME280;17386;43.846;25.950;2023-09-30T12:41:09;101395.22;;;30.88;23.61
20630;BME280;17386;43.846;25.950;2023-09-30T12:43:35;101385.09;;;30.64;23.54
20630;BME280;17386;43.846;25.950;2023-09-30T12:46:00;101400.13;;;30.35;23.79
20630;BME280;17386;43.846;25.950;2023-09-30T12:48:26;101386.91;;;30.22;23.57
20630;BME280;17386;43.846;25.950;2023-09-30T12:50:51;101385.00;;;30.15;23.36
20630;BME280;17386;43.846;25.950;2023-09-30T12:53:17;101378.91;;;29.95;23.51
20630;BME280;17386;43.846;25.950;2023-09-30T12:55:43;101374.56;;;29.84;23.72